sensor_id;sensor_type;location;lat;lon;timestamp;pressure;altitude;pressure_sealevel;temperature;humidity
61963;BME280;47927;42.646;23.096;2023-05-21T00:01:10;91933.75;;;14.08;58.49
61963;BME280;47927;42.646;23.096;2023-05-21T00:03:43;92009.25;;;14.72;58.69
61963;BME280;47927;42.646;23.096;2023-05-21T00:06:13;92000.78;;;14.54;58.99
61963;BME280;47927;42.646;23.096;2023-05-21T00:08:40;92006.72;;;14.62;58.82
61963;BME280;47927;42.646;23.096;2023-05-21T00:11:06;92000.75;;;14.57;58.95
61963;BME280;47927;42.646;23.096;2023-05-21T00:13:31;92001.91;;;14.53;59.11
61963;BME280;47927;42.646;23.096;2023-05-21T00:15:57;92003.03;;;14.48;59.22
61963;BME280;47927;42.646;23.096;2023-05-21T00:18:22;91905.44;;;13.92;58.71
61963;BME280;47927;42.646;23.096;2023-05-21T00:20:50;91990.25;;;14.61;58.51
61963;BME280;47927;42.646;23.096;2023-05-21T00:23:15;91995.00;;;14.73;57.83
61963;BME280;47927;42.646;23.096;2023-05-21T00:25:43;91990.97;;;14.62;58.64
61963;BME280;47927;42.646;23.096;2023-05-21T00:28:09;91937.63;;;14.38;58.10
61963;BME280;47927;42.646;23.096;2023-05-21T00:30:35;91990.25;;;14.61;58.75
61963;BME280;47927;42.646;23.096;2023-05-21T00:33:00;91930.25;;;14.22;58.43
61963;BME280;47927;42.646;23.096;2023-05-21T00:35:27;91996.63;;;14.56;58.63
61963;BME280;47927;42.646;23.096;2023-05-21T00:37:53;91987.34;;;14.45;59.20
61963;BME280;47927;42.646;23.096;2023-05-21T00:40:19;91895.78;;;13.78;59.49
61963;BME280;47927;42.646;23.096;2023-05-21T00:42:45;91987.63;;;14.05;60.10
61963;BME280;47927;42.646;23.096;2023-05-21T00:45:12;91956.13;;;14.12;59.32
61963;BME280;47927;42.646;23.096;2023-05-21T00:47:40;91991.78;;;14.55;58.75
61963;BME280;47927;42.646;23.096;2023-05-21T00:50:07;91987.88;;;13.66;61.23
61963;BME280;47927;42.646;23.096;2023-05-21T00:52:33;91951.56;;;13.72;60.76
61963;BME280;47927;42.646;23.096;2023-05-21T00:55:06;91892.56;;;13.60;59.87
61963;BME280;47927;42.646;23.096;2023-05-21T00:57:32;91946.28;;;13.79;60.30
61963;BME280;47927;42.646;23.096;2023-05-21T00:59:58;91959.22;;;14.00;60.02
61963;BME280;47927;42.646;23.096;2023-05-21T01:02:24;91979.41;;;14.03;59.84
61963;BME280;47927;42.646;23.096;2023-05-21T01:04:53;91945.06;;;13.94;59.43
61963;BME280;47927;42.646;23.096;2023-05-21T01:07:19;91968.94;;;14.03;59.50
61963;BME280;47927;42.646;23.096;2023-05-21T01:09:46;91967.09;;;14.00;59.65
61963;BME280;47927;42.646;23.096;2023-05-21T01:12:12;91955.88;;;14.00;59.15
61963;BME280;47927;42.646;23.096;2023-05-21T01:14:38;91929.00;;;13.88;58.91
61963;BME280;47927;42.646;23.096;2023-05-21T01:17:05;91963.22;;;13.60;60.05
61963;BME280;47927;42.646;23.096;2023-05-21T01:19:35;91959.69;;;13.88;59.38
61963;BME280;47927;42.646;23.096;2023-05-21T01:22:05;91953.88;;;14.14;58.29
61963;BME280;47927;42.646;23.096;2023-05-21T01:24:31;91905.88;;;13.80;58.38
61963;BME280;47927;42.646;23.096;2023-05-21T01:26:58;91916.00;;;13.78;58.81
61963;BME280;47927;42.646;23.096;2023-05-21T01:29:24;91953.13;;;14.18;58.70
61963;BME280;47927;42.646;23.096;2023-05-21T01:35:16;91911.25;;;14.10;58.15
61963;BME280;47927;42.646;23.096;2023-05-21T01:39:51;91953.13;;;14.18;58.89
61963;BME280;47927;42.646;23.096;2023-05-21T01:42:18;91948.88;;;14.34;58.57
61963;BME280;47927;42.646;23.096;2023-05-21T01:44:45;91891.78;;;14.11;58.02
61963;BME280;47927;42.646;23.096;2023-05-21T01:47:13;91942.41;;;14.46;57.97
61963;BME280;47927;42.646;23.096;2023-05-21T01:49:39;91862.38;;;13.93;58.16
61963;BME280;47927;42.646;23.096;2023-05-21T01:52:05;91937.22;;;14.39;58.41
61963;BME280;47927;42.646;23.096;2023-05-21T01:54:31;91921.78;;;14.07;58.69
61963;BME280;47927;42.646;23.096;2023-05-21T01:56:56;91939.06;;;14.42;58.16
61963;BME280;47927;42.646;23.096;2023-05-21T01:59:22;91926.94;;;14.14;58.78
61963;BME280;47927;42.646;23.096;2023-05-21T02:01:48;91933.34;;;14.54;57.96
61963;BME280;47927;42.646;23.096;2023-05-21T02:04:13;91938.13;;;14.67;57.27
61963;BME280;47927;42.646;23.096;2023-05-21T02:06:39;91906.16;;;14.38;57.50
61963;BME280;47927;42.646;23.096;2023-05-21T02:09:06;91910.16;;;14.08;58.66
61963;BME280;47927;42.646;23.096;2023-05-21T02:11:33;91922.13;;;14.54;58.36
61963;BME280;47927;42.646;23.096;2023-05-21T02:13:59;91913.94;;;14.45;58.19
61963;BME280;47927;42.646;23.096;2023-05-21T02:16:24;91868.28;;;14.01;58.25
61963;BME280;47927;42.646;23.096;2023-05-21T02:18:50;91921.19;;;14.30;58.34
61963;BME280;47927;42.646;23.096;2023-05-21T02:21:17;91910.69;;;14.33;58.69
61963;BME280;47927;42.646;23.096;2023-05-21T02:23:44;91924.47;;;14.41;58.04
61963;BME280;47927;42.646;23.096;2023-05-21T02:26:10;91925.75;;;14.67;57.63
61963;BME280;47927;42.646;23.096;2023-05-21T02:28:35;91921.91;;;14.79;56.87
61963;BME280;47927;42.646;23.096;2023-05-21T02:31:01;91936.25;;;14.67;57.59
61963;BME280;47927;42.646;23.096;2023-05-21T02:33:26;91924.38;;;14.55;57.71
61963;BME280;47927;42.646;23.096;2023-05-21T02:35:52;91925.50;;;14.54;58.18
61963;BME280;47927;42.646;23.096;2023-05-21T02:38:18;91902.56;;;14.21;58.33
61963;BME280;47927;42.646;23.096;2023-05-21T02:40:45;91902.19;;;14.19;58.38
61963;BME280;47927;42.646;23.096;2023-05-21T02:43:10;91919.53;;;14.05;59.40
61963;BME280;47927;42.646;23.096;2023-05-21T02:45:39;91922.88;;;14.06;59.36
61963;BME280;47927;42.646;23.096;2023-05-21T02:48:05;91834.03;;;13.84;58.19
61963;BME280;47927;42.646;23.096;2023-05-21T02:50:34;91926.09;;;14.73;57.13
61963;BME280;47927;42.646;23.096;2023-05-21T02:53:00;91923.38;;;14.80;57.03
61963;BME280;47927;42.646;23.096;2023-05-21T02:55:26;91924.84;;;14.81;56.62
61963;BME280;47927;42.646;23.096;2023-05-21T02:57:52;91861.25;;;14.35;56.86
61963;BME280;47927;42.646;23.096;2023-05-21T03:00:17;91832.59;;;14.18;56.75
61963;BME280;47927;42.646;23.096;2023-05-21T03:02:43;91884.72;;;14.50;56.97
61963;BME280;47927;42.646;23.096;2023-05-21T03:05:09;91847.00;;;14.40;56.09
61963;BME280;47927;42.646;23.096;2023-05-21T03:07:34;91923.91;;;14.98;56.33
61963;BME280;47927;42.646;23.096;2023-05-21T03:10:00;91928.97;;;14.82;56.17
61963;BME280;47927;42.646;23.096;2023-05-21T03:12:26;91923.47;;;14.69;56.23
61963;BME280;47927;42.646;23.096;2023-05-21T03:14:51;91921.97;;;14.72;56.35
61963;BME280;47927;42.646;23.096;2023-05-21T03:17:18;91903.84;;;14.47;56.75
61963;BME280;47927;42.646;23.096;2023-05-21T03:19:44;91942.94;;;14.72;56.62
61963;BME280;47927;42.646;23.096;2023-05-21T03:22:10;91929.31;;;14.01;58.54
61963;BME280;47927;42.646;23.096;2023-05-21T03:24:37;91929.69;;;14.45;57.55
61963;BME280;47927;42.646;23.096;2023-05-21T03:27:04;91937.13;;;14.50;57.02
61963;BME280;47927;42.646;23.096;2023-05-21T03:29:33;91937.50;;;14.48;57.74
61963;BME280;47927;42.646;23.096;2023-05-21T03:32:00;91909.34;;;14.59;56.76
61963;BME280;47927;42.646;23.096;2023-05-21T03:34:26;91900.00;;;14.58;56.55
61963;BME280;47927;42.646;23.096;2023-05-21T03:36:52;91936.66;;;15.00;56.04
61963;BME280;47927;42.646;23.096;2023-05-21T03:39:19;91926.38;;;14.82;56.30
61963;BME280;47927;42.646;23.096;2023-05-21T03:41:45;91943.44;;;14.59;57.59
61963;BME280;47927;42.646;23.096;2023-05-21T03:44:24;91942.09;;;14.82;57.17
61963;BME280;47927;42.646;23.096;2023-05-21T03:46:54;91930.19;;;14.74;56.94
61963;BME280;47927;42.646;23.096;2023-05-21T03:49:29;91946.28;;;14.76;57.01
61963;BME280;47927;42.646;23.096;2023-05-21T03:51:55;91888.47;;;14.45;56.78
61963;BME280;47927;42.646;23.096;2023-05-21T03:54:28;91933.59;;;14.71;57.12
61963;BME280;47927;42.646;23.096;2023-05-21T03:57:00;91946.22;;;15.14;56.16
61963;BME280;47927;42.646;23.096;2023-05-21T03:59:27;91945.72;;;14.92;56.87
61963;BME280;47927;42.646;23.096;2023-05-21T04:01:52;91928.47;;;14.94;56.49
61963;BME280;47927;42.646;23.096;2023-05-21T04:04:18;91936.63;;;15.03;56.30
61963;BME280;47927;42.646;23.096;2023-05-21T04:06:43;91865.16;;;14.62;56.19
61963;BME280;47927;42.646;23.096;2023-05-21T04:09:10;91940.97;;;15.14;56.47
61963;BME280;47927;42.646;23.096;2023-05-21T04:11:36;91904.78;;;15.01;56.39
61963;BME280;47927;42.646;23.096;2023-05-21T04:14:02;91836.06;;;14.45;56.34
61963;BME280;47927;42.646;23.096;2023-05-21T04:16:27;91936.03;;;15.54;55.48
61963;BME280;47927;42.646;23.096;2023-05-21T04:18:53;91921.59;;;15.69;54.63
61963;BME280;47927;42.646;23.096;2023-05-21T04:21:22;91918.25;;;15.92;54.13
61963;BME280;47927;42.646;23.096;2023-05-21T04:23:47;91936.00;;;17.02;51.68
61963;BME280;47927;42.646;23.096;2023-05-21T04:26:26;91913.06;;;16.35;51.69
61963;BME280;47927;42.646;23.096;2023-05-21T04:28:52;91931.50;;;18.11;48.42
61963;BME280;47927;42.646;23.096;2023-05-21T04:31:18;91935.34;;;20.23;43.10
61963;BME280;47927;42.646;23.096;2023-05-21T04:33:44;91944.44;;;21.71;40.00
61963;BME280;47927;42.646;23.096;2023-05-21T04:36:11;91920.75;;;23.31;36.67
61963;BME280;47927;42.646;23.096;2023-05-21T04:38:37;91919.06;;;23.79;34.77
61963;BME280;47927;42.646;23.096;2023-05-21T04:41:04;91862.72;;;23.90;33.91
61963;BME280;47927;42.646;23.096;2023-05-21T04:43:31;91931.53;;;24.40;33.10
61963;BME280;47927;42.646;23.096;2023-05-21T04:45:58;91938.19;;;23.13;35.15
61963;BME280;47927;42.646;23.096;2023-05-21T04:48:24;91938.31;;;22.64;36.22
61963;BME280;47927;42.646;23.096;2023-05-21T04:50:51;91896.69;;;21.93;36.85
61963;BME280;47927;42.646;23.096;2023-05-21T04:53:17;91940.84;;;22.18;37.43
61963;BME280;47927;42.646;23.096;2023-05-21T04:55:44;91937.06;;;22.28;36.26
61963;BME280;47927;42.646;23.096;2023-05-21T04:58:12;91907.03;;;22.59;36.60
61963;BME280;47927;42.646;23.096;2023-05-21T05:00:38;91942.53;;;22.02;36.81
61963;BME280;47927;42.646;23.096;2023-05-21T05:03:04;91898.50;;;22.14;36.88
61963;BME280;47927;42.646;23.096;2023-05-21T05:05:30;91941.72;;;22.92;35.86
61963;BME280;47927;42.646;23.096;2023-05-21T05:07:56;91946.16;;;23.23;34.84
61963;BME280;47927;42.646;23.096;2023-05-21T05:10:22;91916.81;;;23.87;33.66
61963;BME280;47927;42.646;23.096;2023-05-21T05:12:48;91929.97;;;24.81;31.88
61963;BME280;47927;42.646;23.096;2023-05-21T05:15:14;91954.34;;;26.31;31.27
61963;BME280;47927;42.646;23.096;2023-05-21T05:17:40;91939.34;;;26.90;28.87
61963;BME280;47927;42.646;23.096;2023-05-21T05:20:07;91940.16;;;28.63;26.23
61963;BME280;47927;42.646;23.096;2023-05-21T05:22:32;91949.88;;;29.04;25.44
61963;BME280;47927;42.646;23.096;2023-05-21T05:24:58;91948.34;;;31.81;22.34
61963;BME280;47927;42.646;23.096;2023-05-21T05:27:24;91949.06;;;30.76;23.31
61963;BME280;47927;42.646;23.096;2023-05-21T05:29:50;91948.19;;;29.06;25.29
61963;BME280;47927;42.646;23.096;2023-05-21T05:32:15;91926.41;;;29.70;24.35
61963;BME280;47927;42.646;23.096;2023-05-21T05:34:41;91943.56;;;31.15;22.98
61963;BME280;47927;42.646;23.096;2023-05-21T05:37:07;91952.84;;;31.67;21.63
61963;BME280;47927;42.646;23.096;2023-05-21T05:39:32;91955.44;;;30.61;23.17
61963;BME280;47927;42.646;23.096;2023-05-21T05:41:59;91896.16;;;31.84;21.37
61963;BME280;47927;42.646;23.096;2023-05-21T05:44:25;91949.53;;;34.14;18.79
61963;BME280;47927;42.646;23.096;2023-05-21T05:46:50;91922.72;;;33.46;19.47
61963;BME280;47927;42.646;23.096;2023-05-21T05:49:16;91953.19;;;34.30;18.36
61963;BME280;47927;42.646;23.096;2023-05-21T05:51:41;91946.91;;;30.07;22.36
61963;BME280;47927;42.646;23.096;2023-05-21T05:54:07;91950.13;;;31.14;22.03
61963;BME280;47927;42.646;23.096;2023-05-21T05:56:34;91951.56;;;30.17;22.42
61963;BME280;47927;42.646;23.096;2023-05-21T05:58:59;91895.91;;;30.99;21.37
61963;BME280;47927;42.646;23.096;2023-05-21T06:01:25;91952.69;;;31.95;21.00
61963;BME280;47927;42.646;23.096;2023-05-21T06:03:51;91942.09;;;32.03;20.42
61963;BME280;47927;42.646;23.096;2023-05-21T06:06:17;91888.78;;;29.92;22.42
61963;BME280;47927;42.646;23.096;2023-05-21T06:08:43;91918.00;;;30.86;22.83
61963;BME280;47927;42.646;23.096;2023-05-21T06:11:10;91942.72;;;31.78;20.79
61963;BME280;47927;42.646;23.096;2023-05-21T06:13:36;91935.81;;;29.26;24.69
61963;BME280;47927;42.646;23.096;2023-05-21T06:16:03;91889.53;;;29.70;24.06
61963;BME280;47927;42.646;23.096;2023-05-21T06:18:28;91930.00;;;28.79;24.62
61963;BME280;47927;42.646;23.096;2023-05-21T06:20:54;91862.19;;;26.01;27.70
61963;BME280;47927;42.646;23.096;2023-05-21T06:23:21;91947.38;;;25.30;30.02
61963;BME280;47927;42.646;23.096;2023-05-21T06:25:48;91926.34;;;24.45;31.72
61963;BME280;47927;42.646;23.096;2023-05-21T06:28:15;91926.47;;;24.08;32.37
61963;BME280;47927;42.646;23.096;2023-05-21T06:30:42;91877.25;;;23.61;33.75
61963;BME280;47927;42.646;23.096;2023-05-21T06:33:07;91920.00;;;22.75;34.86
61963;BME280;47927;42.646;23.096;2023-05-21T06:35:33;91830.22;;;21.87;35.34
61963;BME280;47927;42.646;23.096;2023-05-21T06:38:01;91928.09;;;20.97;38.96
61963;BME280;47927;42.646;23.096;2023-05-21T06:40:27;91859.06;;;19.45;41.43
61963;BME280;47927;42.646;23.096;2023-05-21T06:42:55;91873.97;;;20.16;40.68
61963;BME280;47927;42.646;23.096;2023-05-21T06:45:40;91911.88;;;20.60;38.94
61963;BME280;47927;42.646;23.096;2023-05-21T06:48:28;91931.84;;;21.31;38.75
61963;BME280;47927;42.646;23.096;2023-05-21T06:50:54;91930.03;;;20.11;40.54
61963;BME280;47927;42.646;23.096;2023-05-21T06:53:19;91930.81;;;20.11;40.52
61963;BME280;47927;42.646;23.096;2023-05-21T06:55:45;91937.53;;;20.25;39.48
61963;BME280;47927;42.646;23.096;2023-05-21T06:58:20;91929.28;;;19.72;40.19
61963;BME280;47927;42.646;23.096;2023-05-21T07:00:46;91934.28;;;19.95;40.73
61963;BME280;47927;42.646;23.096;2023-05-21T07:03:13;91938.38;;;20.47;39.31
61963;BME280;47927;42.646;23.096;2023-05-21T07:05:39;91923.94;;;20.74;39.02
61963;BME280;47927;42.646;23.096;2023-05-21T07:08:04;91928.31;;;20.42;39.95
61963;BME280;47927;42.646;23.096;2023-05-21T07:10:30;91904.03;;;20.69;39.04
61963;BME280;47927;42.646;23.096;2023-05-21T07:12:56;91943.53;;;20.64;39.12
61963;BME280;47927;42.646;23.096;2023-05-21T07:15:22;91932.09;;;20.67;38.78
61963;BME280;47927;42.646;23.096;2023-05-21T07:17:47;91933.84;;;20.35;40.39
61963;BME280;47927;42.646;23.096;2023-05-21T07:20:13;91936.06;;;20.84;39.27
61963;BME280;47927;42.646;23.096;2023-05-21T07:22:42;91922.38;;;20.51;38.34
61963;BME280;47927;42.646;23.096;2023-05-21T07:25:09;91924.34;;;23.00;34.83
61963;BME280;47927;42.646;23.096;2023-05-21T07:27:35;91942.19;;;22.90;32.93
61963;BME280;47927;42.646;23.096;2023-05-21T07:30:00;91944.16;;;22.00;34.05
61963;BME280;47927;42.646;23.096;2023-05-21T07:32:27;91938.19;;;23.32;32.75
61963;BME280;47927;42.646;23.096;2023-05-21T07:34:54;91937.00;;;23.05;33.94
61963;BME280;47927;42.646;23.096;2023-05-21T07:37:22;91947.63;;;24.03;31.19
61963;BME280;47927;42.646;23.096;2023-05-21T07:39:49;91949.13;;;25.33;28.99
61963;BME280;47927;42.646;23.096;2023-05-21T07:42:15;91948.44;;;24.61;30.65
61963;BME280;47927;42.646;23.096;2023-05-21T07:44:41;91943.47;;;26.35;29.10
61963;BME280;47927;42.646;23.096;2023-05-21T07:47:06;91959.13;;;26.98;26.18
61963;BME280;47927;42.646;23.096;2023-05-21T07:49:33;91943.91;;;26.13;27.66
61963;BME280;47927;42.646;23.096;2023-05-21T07:51:58;91941.25;;;25.83;27.62
61963;BME280;47927;42.646;23.096;2023-05-21T07:54:24;91947.84;;;23.90;30.47
61963;BME280;47927;42.646;23.096;2023-05-21T07:56:50;91943.00;;;25.86;30.33
61963;BME280;47927;42.646;23.096;2023-05-21T07:59:41;91960.59;;;25.00;29.28
61963;BME280;47927;42.646;23.096;2023-05-21T08:02:07;91950.47;;;23.99;31.16
61963;BME280;47927;42.646;23.096;2023-05-21T08:04:35;91935.69;;;23.10;33.26
61963;BME280;47927;42.646;23.096;2023-05-21T08:07:01;91946.00;;;24.05;30.85
61963;BME280;47927;42.646;23.096;2023-05-21T08:09:27;91952.66;;;24.10;30.88
61963;BME280;47927;42.646;23.096;2023-05-21T08:11:53;91941.59;;;25.32;29.63
61963;BME280;47927;42.646;23.096;2023-05-21T08:14:18;91933.19;;;24.61;28.86
61963;BME280;47927;42.646;23.096;2023-05-21T08:16:45;91936.31;;;24.60;29.50
61963;BME280;47927;42.646;23.096;2023-05-21T08:19:10;91923.88;;;21.75;32.34
61963;BME280;47927;42.646;23.096;2023-05-21T08:21:36;91932.22;;;22.54;32.19
61963;BME280;47927;42.646;23.096;2023-05-21T08:24:02;91946.91;;;23.32;32.03
61963;BME280;47927;42.646;23.096;2023-05-21T08:26:27;91856.69;;;22.27;32.77
61963;BME280;47927;42.646;23.096;2023-05-21T08:28:53;91950.91;;;23.09;30.84
61963;BME280;47927;42.646;23.096;2023-05-21T08:31:19;91941.00;;;23.19;31.88
61963;BME280;47927;42.646;23.096;2023-05-21T08:33:51;91941.88;;;23.34;31.64
61963;BME280;47927;42.646;23.096;2023-05-21T08:36:20;91891.97;;;22.46;31.93
61963;BME280;47927;42.646;23.096;2023-05-21T08:38:52;91947.16;;;21.80;33.03
61963;BME280;47927;42.646;23.096;2023-05-21T08:41:24;91945.78;;;22.38;33.00
61963;BME280;47927;42.646;23.096;2023-05-21T08:43:54;91947.91;;;22.80;30.79
61963;BME280;47927;42.646;23.096;2023-05-21T08:46:28;91943.63;;;23.37;30.63
61963;BME280;47927;42.646;23.096;2023-05-21T08:48:57;91908.34;;;22.63;29.43
61963;BME280;47927;42.646;23.096;2023-05-21T08:51:24;91944.09;;;23.27;29.71
61963;BME280;47927;42.646;23.096;2023-05-21T08:53:52;91947.78;;;23.11;28.77
61963;BME280;47927;42.646;23.096;2023-05-21T08:56:19;91951.63;;;23.10;28.63
61963;BME280;47927;42.646;23.096;2023-05-21T08:58:50;91953.47;;;22.63;29.49
61963;BME280;47927;42.646;23.096;2023-05-21T09:01:20;91932.09;;;23.50;28.64
61963;BME280;47927;42.646;23.096;2023-05-21T09:03:55;91947.59;;;23.60;28.90
61963;BME280;47927;42.646;23.096;2023-05-21T09:06:22;91964.63;;;23.17;29.18
61963;BME280;47927;42.646;23.096;2023-05-21T09:08:58;91958.44;;;22.34;29.78
61963;BME280;47927;42.646;23.096;2023-05-21T09:11:41;91952.31;;;22.55;28.81
61963;BME280;47927;42.646;23.096;2023-05-21T09:14:10;91974.78;;;22.91;27.68
61963;BME280;47927;42.646;23.096;2023-05-21T09:16:54;91912.16;;;22.44;28.45
61963;BME280;47927;42.646;23.096;2023-05-21T09:19:20;91913.97;;;22.93;28.36
61963;BME280;47927;42.646;23.096;2023-05-21T09:21:52;91950.22;;;23.88;29.34
61963;BME280;47927;42.646;23.096;2023-05-21T09:24:20;91965.28;;;22.62;29.92
61963;BME280;47927;42.646;23.096;2023-05-21T09:26:47;91948.31;;;22.60;30.85
61963;BME280;47927;42.646;23.096;2023-05-21T09:29:13;91960.13;;;21.78;31.51
61963;BME280;47927;42.646;23.096;2023-05-21T09:31:43;91950.69;;;20.76;33.98
61963;BME280;47927;42.646;23.096;2023-05-21T09:34:10;91936.13;;;20.46;34.50
61963;BME280;47927;42.646;23.096;2023-05-21T09:36:38;91849.91;;;19.50;35.38
61963;BME280;47927;42.646;23.096;2023-05-21T09:39:04;91960.63;;;20.12;36.17
61963;BME280;47927;42.646;23.096;2023-05-21T09:41:30;91967.38;;;20.13;36.40
61963;BME280;47927;42.646;23.096;2023-05-21T09:44:06;91883.28;;;19.56;36.80
61963;BME280;47927;42.646;23.096;2023-05-21T09:46:38;91922.88;;;19.86;35.39
61963;BME280;47927;42.646;23.096;2023-05-21T09:49:05;91888.84;;;19.33;37.29
61963;BME280;47927;42.646;23.096;2023-05-21T09:51:30;91946.50;;;20.40;35.87
61963;BME280;47927;42.646;23.096;2023-05-21T09:53:56;91956.91;;;20.22;35.16
61963;BME280;47927;42.646;23.096;2023-05-21T09:56:27;91944.03;;;20.11;35.79
61963;BME280;47927;42.646;23.096;2023-05-21T09:59:00;91936.03;;;20.37;35.72
61963;BME280;47927;42.646;23.096;2023-05-21T10:01:30;91942.28;;;20.90;35.27
61963;BME280;47927;42.646;23.096;2023-05-21T10:03:57;91907.09;;;20.08;35.35
61963;BME280;47927;42.646;23.096;2023-05-21T10:06:25;91934.25;;;20.34;35.49
61963;BME280;47927;42.646;23.096;2023-05-21T10:08:53;91939.69;;;20.78;34.53
61963;BME280;47927;42.646;23.096;2023-05-21T10:11:25;91837.91;;;20.57;32.57
61963;BME280;47927;42.646;23.096;2023-05-21T10:13:57;91944.91;;;21.03;32.12
61963;BME280;47927;42.646;23.096;2023-05-21T10:16:25;91942.31;;;20.56;31.90
61963;BME280;47927;42.646;23.096;2023-05-21T10:18:52;91899.03;;;20.24;32.90
61963;BME280;47927;42.646;23.096;2023-05-21T10:21:20;91940.84;;;20.29;32.96
61963;BME280;47927;42.646;23.096;2023-05-21T10:23:47;91929.59;;;20.38;32.81
61963;BME280;47927;42.646;23.096;2023-05-21T10:26:13;91912.03;;;20.44;32.19
61963;BME280;47927;42.646;23.096;2023-05-21T10:28:38;91896.38;;;19.47;33.30
61963;BME280;47927;42.646;23.096;2023-05-21T10:31:05;91931.16;;;19.46;33.83
61963;BME280;47927;42.646;23.096;2023-05-21T10:33:31;91926.88;;;19.65;33.42
61963;BME280;47927;42.646;23.096;2023-05-21T10:36:00;91927.94;;;20.06;32.87
61963;BME280;47927;42.646;23.096;2023-05-21T10:38:26;91916.94;;;21.24;31.92
61963;BME280;47927;42.646;23.096;2023-05-21T10:40:54;91885.16;;;21.24;30.83
61963;BME280;47927;42.646;23.096;2023-05-21T10:46:49;91926.44;;;21.12;31.63
61963;BME280;47927;42.646;23.096;2023-05-21T10:49:49;91939.28;;;20.66;32.87
61963;BME280;47927;42.646;23.096;2023-05-21T11:01:11;91843.34;;;22.00;30.54
61963;BME280;47927;42.646;23.096;2023-05-21T11:03:37;91931.34;;;21.67;30.72
61963;BME280;47927;42.646;23.096;2023-05-21T11:06:03;91935.41;;;21.59;31.42
61963;BME280;47927;42.646;23.096;2023-05-21T11:08:32;91933.47;;;21.81;30.23
61963;BME280;47927;42.646;23.096;2023-05-21T11:11:01;91926.00;;;22.39;29.55
61963;BME280;47927;42.646;23.096;2023-05-21T11:13:43;91926.19;;;22.53;30.63
61963;BME280;47927;42.646;23.096;2023-05-21T11:16:14;91922.75;;;21.54;29.97
61963;BME280;47927;42.646;23.096;2023-05-21T11:21:08;91869.28;;;21.55;30.39
61963;BME280;47927;42.646;23.096;2023-05-21T11:26:21;91882.91;;;21.76;30.02
61963;BME280;47927;42.646;23.096;2023-05-21T11:29:10;91914.66;;;22.38;30.50
61963;BME280;47927;42.646;23.096;2023-05-21T11:31:36;91841.16;;;21.98;31.17
61963;BME280;47927;42.646;23.096;2023-05-21T11:34:10;91894.63;;;21.97;31.84
61963;BME280;47927;42.646;23.096;2023-05-21T11:36:37;91908.94;;;21.99;30.55
61963;BME280;47927;42.646;23.096;2023-05-21T11:39:10;91916.19;;;21.77;31.87
61963;BME280;47927;42.646;23.096;2023-05-21T11:44:21;91910.31;;;22.13;30.81
61963;BME280;47927;42.646;23.096;2023-05-21T11:47:02;91907.81;;;21.78;30.45
61963;BME280;47927;42.646;23.096;2023-05-21T11:49:29;91905.41;;;22.02;31.12
61963;BME280;47927;42.646;23.096;2023-05-21T11:51:55;91910.72;;;22.52;31.27
61963;BME280;47927;42.646;23.096;2023-05-21T11:54:21;91897.41;;;22.34;31.35
61963;BME280;47927;42.646;23.096;2023-05-21T11:56:48;91904.03;;;22.29;32.23
61963;BME280;47927;42.646;23.096;2023-05-21T11:59:14;91900.19;;;22.21;31.04
61963;BME280;47927;42.646;23.096;2023-05-21T12:01:42;91888.91;;;21.98;30.94
61963;BME280;47927;42.646;23.096;2023-05-21T12:04:09;91884.94;;;22.12;31.46
61963;BME280;47927;42.646;23.096;2023-05-21T12:06:37;91808.84;;;21.81;32.14
61963;BME280;47927;42.646;23.096;2023-05-21T12:09:10;91891.50;;;22.39;31.26
61963;BME280;47927;42.646;23.096;2023-05-21T12:11:37;91886.84;;;22.12;31.25
61963;BME280;47927;42.646;23.096;2023-05-21T12:14:09;91856.00;;;21.87;32.29
61963;BME280;47927;42.646;23.096;2023-05-21T12:16:36;91891.03;;;22.22;32.41
61963;BME280;47927;42.646;23.096;2023-05-21T12:19:05;91883.22;;;22.18;32.07
61963;BME280;47927;42.646;23.096;2023-05-21T12:21:31;91896.41;;;22.40;32.16
61963;BME280;47927;42.646;23.096;2023-05-21T12:23:57;91748.50;;;21.36;31.81
61963;BME280;47927;42.646;23.096;2023-05-21T12:26:24;91854.34;;;22.29;32.06
61963;BME280;47927;42.646;23.096;2023-05-21T12:29:08;91873.44;;;22.06;32.65
61963;BME280;47927;42.646;23.096;2023-05-21T12:31:46;91889.66;;;22.08;32.63
61963;BME280;47927;42.646;23.096;2023-05-21T12:34:12;91802.84;;;21.50;33.25
61963;BME280;47927;42.646;23.096;2023-05-21T12:36:41;91832.84;;;21.37;33.23
61963;BME280;47927;42.646;23.096;2023-05-21T12:39:10;91884.00;;;21.88;34.06
61963;BME280;47927;42.646;23.096;2023-05-21T12:41:36;91879.56;;;22.34;33.51
61963;BME280;47927;42.646;23.096;2023-05-21T12:44:20;91877.97;;;22.55;33.28
61963;BME280;47927;42.646;23.096;2023-05-21T12:46:46;91873.56;;;22.52;33.50
61963;BME280;47927;42.646;23.096;2023-05-21T12:51:57;91865.44;;;22.37;33.91
61963;BME280;47927;42.646;23.096;2023-05-21T12:54:33;91870.00;;;22.55;32.48
61963;BME280;47927;42.646;23.096;2023-05-21T12:57:06;91864.25;;;22.75;32.54
61963;BME280;47927;42.646;23.096;2023-05-21T13:02:15;91874.25;;;22.25;33.63
61963;BME280;47927;42.646;23.096;2023-05-21T13:04:43;91771.91;;;20.84;34.87
61963;BME280;47927;42.646;23.096;2023-05-21T13:07:08;91870.53;;;21.42;35.37
61963;BME280;47927;42.646;23.096;2023-05-21T13:09:34;91849.63;;;20.90;35.18
61963;BME280;47927;42.646;23.096;2023-05-21T13:11:59;91870.72;;;21.25;35.65
61963;BME280;47927;42.646;23.096;2023-05-21T13:14:25;91869.53;;;22.38;34.23
61963;BME280;47927;42.646;23.096;2023-05-21T13:16:50;91871.47;;;22.47;33.44
61963;BME280;47927;42.646;23.096;2023-05-21T13:19:16;91879.44;;;22.47;33.69
61963;BME280;47927;42.646;23.096;2023-05-21T13:21:42;91783.66;;;21.86;33.70
61963;BME280;47927;42.646;23.096;2023-05-21T13:24:07;91885.19;;;21.87;33.56